createdAt,value
2022-10-23T00:00:34.052Z,6.95
2022-10-23T00:01:39.331Z,6.95
2022-10-23T00:02:41.815Z,6.90
2022-10-23T00:03:44.768Z,6.91
2022-10-23T00:04:52.098Z,6.92
2022-10-23T00:05:54.134Z,6.92
2022-10-23T00:06:56.335Z,6.99
2022-10-23T00:07:59.660Z,7.01
2022-10-23T00:09:06.232Z,7.01
2022-10-23T00:10:09.892Z,7.02
2022-10-23T00:11:14.385Z,7.06
2022-10-23T00:12:18.624Z,7.08
2022-10-23T00:13:20.550Z,7.07
2022-10-23T00:14:24.231Z,7.08
2022-10-23T00:15:26.514Z,7.07
2022-10-23T00:16:29.107Z,7.09
2022-10-23T00:17:31.165Z,7.09
2022-10-23T00:18:33.761Z,7.12
2022-10-23T00:19:35.670Z,7.13
2022-10-23T00:20:38.081Z,7.13
2022-10-23T00:21:40.211Z,7.17
2022-10-23T00:22:42.356Z,7.17
2022-10-23T00:23:45.339Z,7.19
2022-10-23T00:24:47.296Z,7.22
2022-10-23T00:25:49.979Z,7.23
2022-10-23T00:26:52.210Z,7.26
2022-10-23T00:27:54.146Z,7.25
2022-10-23T00:28:56.394Z,7.27
2022-10-23T00:29:58.667Z,7.26
2022-10-23T00:31:02.173Z,7.27
2022-10-23T00:32:04.236Z,7.27
2022-10-23T00:33:06.223Z,7.27
2022-10-23T00:34:08.285Z,7.29
2022-10-23T00:35:10.601Z,7.28
2022-10-23T00:36:18.111Z,7.26
2022-10-23T00:37:20.448Z,7.28
2022-10-23T00:38:22.651Z,7.29
2022-10-23T00:39:24.789Z,7.28
2022-10-23T00:40:28.044Z,7.28
2022-10-23T00:41:30.365Z,7.28
2022-10-23T00:42:32.415Z,7.29
2022-10-23T00:43:35.576Z,7.32
2022-10-23T00:44:41.241Z,7.32
2022-10-23T00:45:43.183Z,7.34
2022-10-23T00:46:45.855Z,7.34
2022-10-23T00:48:59.131Z,7.44
2022-10-23T00:50:01.726Z,7.29
2022-10-23T00:51:03.931Z,7.24
2022-10-23T00:52:09.130Z,7.28
2022-10-23T00:53:12.956Z,7.28
2022-10-23T00:54:25.443Z,7.31
2022-10-23T00:55:23.184Z,7.31
2022-10-23T00:56:26.091Z,7.32
2022-10-23T00:58:30.223Z,7.39
2022-10-23T00:59:33.166Z,7.38
2022-10-23T01:00:48.212Z,7.35
2022-10-23T01:01:50.480Z,7.35
2022-10-23T01:02:54.113Z,7.32
2022-10-23T01:03:56.215Z,7.33
2022-10-23T01:04:58.588Z,7.37
2022-10-23T01:06:16.714Z,7.39
2022-10-23T01:07:24.936Z,7.29
2022-10-23T01:08:33.758Z,7.41
2022-10-23T01:09:45.471Z,7.37
2022-10-23T01:10:51.446Z,7.37
2022-10-23T01:12:00.327Z,7.35
2022-10-23T01:13:08.869Z,7.35
2022-10-23T01:15:36.607Z,7.39
2022-10-23T01:16:45.348Z,7.27
2022-10-23T01:17:57.091Z,7.32
2022-10-23T01:19:02.855Z,7.29
2022-10-23T01:20:08.813Z,7.26
2022-10-23T01:21:20.674Z,7.27
2022-10-23T01:24:09.681Z,7.42
2022-10-23T01:25:36.521Z,7.31
2022-10-23T01:27:16.374Z,7.29
2022-10-23T01:29:38.966Z,7.42
2022-10-23T01:30:44.049Z,7.28
2022-10-23T01:32:05.045Z,7.29
2022-10-23T01:33:16.785Z,7.31
2022-10-23T01:34:22.571Z,7.29
2022-10-23T01:35:31.084Z,7.35
2022-10-23T01:36:35.917Z,7.29
2022-10-23T01:39:01.231Z,7.40
2022-10-23T01:40:07.358Z,7.28
2022-10-23T01:42:35.094Z,7.39
2022-10-23T01:43:46.823Z,7.28
2022-10-23T01:44:55.446Z,7.28
2022-10-23T01:46:01.132Z,7.23
2022-10-23T01:47:06.395Z,7.25
2022-10-23T01:48:12.073Z,7.27
2022-10-23T01:49:16.587Z,7.23
2022-10-23T01:50:21.356Z,7.27
2022-10-23T01:51:26.541Z,7.24
2022-10-23T01:52:28.924Z,7.27
2022-10-23T01:53:34.900Z,7.25
2022-10-23T01:54:40.322Z,7.31
2022-10-23T01:55:43.482Z,7.26
2022-10-23T01:56:49.251Z,7.28
2022-10-23T01:57:53.258Z,7.28
2022-10-23T01:58:57.693Z,7.21
2022-10-23T02:00:03.374Z,7.23
2022-10-23T02:01:07.114Z,7.23
2022-10-23T02:02:12.791Z,7.26
2022-10-23T02:03:17.117Z,7.27
2022-10-23T02:04:22.888Z,7.28
2022-10-23T02:05:27.881Z,7.28
2022-10-23T02:06:30.222Z,7.26
2022-10-23T02:07:32.840Z,7.34
2022-10-23T02:08:35.150Z,7.22
2022-10-23T02:09:37.411Z,7.26
2022-10-23T02:10:43.246Z,7.25
2022-10-23T02:13:13.687Z,7.33
2022-10-23T02:15:37.790Z,7.40
2022-10-23T02:16:51.990Z,7.27
2022-10-23T02:18:03.550Z,7.28
2022-10-23T02:19:24.512Z,7.27
2022-10-23T02:20:48.844Z,7.29
2022-10-23T02:22:15.900Z,7.27
2022-10-23T02:23:30.899Z,7.29
2022-10-23T02:24:36.791Z,7.29
2022-10-23T02:25:42.511Z,7.29
2022-10-23T02:26:57.513Z,7.32
2022-10-23T02:28:03.237Z,7.32
2022-10-23T02:29:11.711Z,7.29
2022-10-23T02:30:16.512Z,7.31
2022-10-23T02:31:21.533Z,7.27
2022-10-23T02:32:27.240Z,7.28
2022-10-23T02:33:30.292Z,7.20
2022-10-23T02:34:32.616Z,7.17
2022-10-23T02:35:35.272Z,7.11
2022-10-23T02:36:38.462Z,7.16
2022-10-23T02:37:40.726Z,7.21
2022-10-23T02:38:44.835Z,7.23
2022-10-23T02:39:47.434Z,7.22
2022-10-23T02:40:50.431Z,7.23
2022-10-23T02:41:59.217Z,7.27
2022-10-23T02:43:07.823Z,7.27
2022-10-23T02:44:31.952Z,7.26
2022-10-23T02:45:46.891Z,7.24
2022-10-23T02:47:26.452Z,7.27
2022-10-23T02:48:35.312Z,7.21
2022-10-23T02:49:49.881Z,7.25
2022-10-23T02:51:02.314Z,7.27
2022-10-23T02:52:24.686Z,7.27
2022-10-23T02:53:33.309Z,7.27
2022-10-23T02:54:47.825Z,7.25
2022-10-23T02:55:59.321Z,6.93
2022-10-23T02:57:07.824Z,7.26
2022-10-23T02:58:25.409Z,7.23
2022-10-23T02:59:36.852Z,7.22
2022-10-23T03:00:42.667Z,7.18
2022-10-23T03:01:55.104Z,7.29
2022-10-23T03:04:10.794Z,7.27
2022-10-23T03:05:16.479Z,7.18
2022-10-23T03:06:19.834Z,7.26
2022-10-23T03:07:22.002Z,7.23
2022-10-23T03:08:24.472Z,7.22
2022-10-23T03:09:26.992Z,7.22
2022-10-23T03:10:28.963Z,7.23
2022-10-23T03:11:31.031Z,7.28
2022-10-23T03:12:32.909Z,7.22
2022-10-23T03:13:34.894Z,7.19
2022-10-23T03:14:37.195Z,7.17
2022-10-23T03:15:39.071Z,7.15
2022-10-23T03:16:41.079Z,7.16
2022-10-23T03:17:43.444Z,7.14
2022-10-23T03:18:45.449Z,7.22
2022-10-23T03:19:47.367Z,7.23
2022-10-23T03:20:49.687Z,7.23
2022-10-23T03:21:51.576Z,7.24
2022-10-23T03:22:53.464Z,7.16
2022-10-23T03:23:55.521Z,7.18
2022-10-23T03:24:57.403Z,7.21
2022-10-23T03:26:00.106Z,7.21
2022-10-23T03:27:02.218Z,7.24
2022-10-23T03:28:04.095Z,7.24
2022-10-23T03:29:06.372Z,7.18
2022-10-23T03:30:10.006Z,7.23
2022-10-23T03:31:11.899Z,7.22
2022-10-23T03:32:13.818Z,7.20
2022-10-23T03:33:15.816Z,7.16
2022-10-23T03:34:17.710Z,7.16
2022-10-23T03:35:19.577Z,7.19
2022-10-23T03:36:21.646Z,7.19
2022-10-23T03:37:23.751Z,7.22
2022-10-23T03:38:25.743Z,7.17
2022-10-23T03:39:27.930Z,7.22
2022-10-23T03:40:30.117Z,7.25
2022-10-23T03:41:32.206Z,7.27
2022-10-23T03:42:34.307Z,7.29
2022-10-23T03:43:36.379Z,7.32
2022-10-23T03:44:38.267Z,7.33
2022-10-23T03:45:40.373Z,7.33
2022-10-23T03:46:42.352Z,7.39
2022-10-23T03:47:44.645Z,7.34
2022-10-23T03:48:46.770Z,7.33
2022-10-23T03:49:48.652Z,7.25
2022-10-23T03:50:51.107Z,7.32
2022-10-23T03:51:53.315Z,7.30
2022-10-23T03:52:55.797Z,7.35
2022-10-23T03:53:58.681Z,7.35
2022-10-23T03:55:01.155Z,7.26
2022-10-23T03:56:04.508Z,7.22
2022-10-23T03:57:06.400Z,7.19
2022-10-23T03:58:08.269Z,7.21
2022-10-23T03:59:10.170Z,7.28
2022-10-23T04:00:14.166Z,7.26
2022-10-23T04:01:16.431Z,7.28
2022-10-23T04:02:18.715Z,7.30
2022-10-23T04:03:20.794Z,7.27
2022-10-23T04:04:22.812Z,7.30
2022-10-23T04:05:24.711Z,7.32
2022-10-23T04:06:26.749Z,7.29
2022-10-23T04:07:28.816Z,7.34
2022-10-23T04:08:30.692Z,7.37
2022-10-23T04:09:32.693Z,7.35
2022-10-23T04:10:34.687Z,7.33
2022-10-23T04:11:36.886Z,7.27
2022-10-23T04:12:38.778Z,7.31
2022-10-23T04:13:40.654Z,7.33
2022-10-23T04:14:43.129Z,7.29
2022-10-23T04:15:52.920Z,7.30
2022-10-23T04:16:55.030Z,7.29
2022-10-23T04:17:56.910Z,7.29
2022-10-23T04:18:58.995Z,7.29
2022-10-23T04:20:01.403Z,7.38
2022-10-23T04:21:03.584Z,7.46
2022-10-23T04:22:05.834Z,7.40
2022-10-23T04:23:08.156Z,7.37
2022-10-23T04:24:10.427Z,7.45
2022-10-23T04:25:12.507Z,7.40
2022-10-23T04:26:14.592Z,7.42
2022-10-23T04:27:16.490Z,7.40
2022-10-23T04:28:18.664Z,7.41
2022-10-23T04:29:25.729Z,7.41
2022-10-23T04:30:30.937Z,7.39
2022-10-23T04:31:35.500Z,7.37
2022-10-23T04:32:37.398Z,7.45
2022-10-23T04:33:47.572Z,7.44
2022-10-23T04:36:32.958Z,7.47
2022-10-23T04:37:35.962Z,7.41
2022-10-23T04:38:37.897Z,7.39
2022-10-23T04:39:39.821Z,7.40
2022-10-23T04:40:45.902Z,7.42
2022-10-23T04:41:51.125Z,7.46
2022-10-23T04:44:09.118Z,7.55
2022-10-23T04:45:27.930Z,7.46
2022-10-23T04:46:22.486Z,7.49
2022-10-23T04:48:54.380Z,7.48
2022-10-23T04:49:57.801Z,7.47
2022-10-23T04:51:03.917Z,7.48
2022-10-23T04:52:06.030Z,7.44
2022-10-23T04:53:08.734Z,7.48
2022-10-23T04:54:10.613Z,7.45
2022-10-23T04:55:12.896Z,7.46
2022-10-23T04:56:15.089Z,7.50
2022-10-23T04:57:17.082Z,7.51
2022-10-23T04:58:19.056Z,7.46
2022-10-23T04:59:21.323Z,7.50
2022-10-23T05:00:23.615Z,7.54
2022-10-23T05:01:25.713Z,7.56
2022-10-23T05:02:27.712Z,7.55
2022-10-23T05:03:29.717Z,7.52
2022-10-23T05:04:32.056Z,7.54
2022-10-23T05:05:33.939Z,7.55
2022-10-23T05:06:36.232Z,7.55
2022-10-23T05:07:38.233Z,7.55
2022-10-23T05:08:40.173Z,7.55
2022-10-23T05:09:42.359Z,7.56
2022-10-23T05:10:44.605Z,7.57
2022-10-23T05:11:46.584Z,7.59
2022-10-23T05:12:48.467Z,7.61
2022-10-23T05:13:50.694Z,7.57
2022-10-23T05:14:53.509Z,7.54
2022-10-23T05:15:58.002Z,7.53
2022-10-23T05:17:07.009Z,7.55
2022-10-23T05:18:12.683Z,7.52
2022-10-23T05:19:24.817Z,7.52
2022-10-23T05:20:30.596Z,7.53
2022-10-23T05:21:35.094Z,7.56
2022-10-23T05:22:40.153Z,7.55
2022-10-23T05:23:44.775Z,7.51
2022-10-23T05:24:50.472Z,7.56
2022-10-23T05:25:51.988Z,7.57
2022-10-23T05:26:54.059Z,7.56
2022-10-23T05:27:56.627Z,7.58
2022-10-23T05:29:00.053Z,7.57
2022-10-23T05:30:03.560Z,7.57
2022-10-23T05:31:06.234Z,7.60
2022-10-23T05:32:10.307Z,7.63
2022-10-23T05:33:13.097Z,7.61
2022-10-23T05:34:17.933Z,7.61
2022-10-23T05:35:22.583Z,7.67
2022-10-23T05:36:25.606Z,7.61
2022-10-23T05:37:28.226Z,7.61
2022-10-23T05:38:33.935Z,7.58
2022-10-23T05:39:36.255Z,7.58
2022-10-23T05:41:41.269Z,7.56
2022-10-23T05:42:43.906Z,7.56
2022-10-23T05:43:46.309Z,7.57
2022-10-23T05:44:48.448Z,7.58
2022-10-23T05:45:50.316Z,7.57
2022-10-23T05:46:52.522Z,7.58
2022-10-23T05:47:56.550Z,7.60
2022-10-23T05:50:01.302Z,7.59
2022-10-23T05:51:08.706Z,7.59
2022-10-23T05:52:11.759Z,7.56
2022-10-23T05:53:15.611Z,7.60
2022-10-23T05:54:17.762Z,7.61
2022-10-23T05:55:19.984Z,7.60
2022-10-23T05:56:22.152Z,7.62
2022-10-23T05:57:24.044Z,7.67
2022-10-23T05:58:26.253Z,7.69
2022-10-23T05:59:28.212Z,7.65
2022-10-23T06:00:31.462Z,7.68
2022-10-23T06:01:33.656Z,7.66
2022-10-23T06:02:35.837Z,7.70
2022-10-23T06:03:39.193Z,7.71
2022-10-23T06:04:41.110Z,7.76
2022-10-23T06:05:51.598Z,7.75
2022-10-23T06:06:54.035Z,7.74
2022-10-23T06:08:00.579Z,7.72
2022-10-23T06:09:03.992Z,7.75
2022-10-23T06:10:08.398Z,7.77
2022-10-23T06:11:13.262Z,7.85
2022-10-23T06:12:15.484Z,7.79
2022-10-23T06:13:17.422Z,7.79
2022-10-23T06:14:19.411Z,7.79
2022-10-23T06:15:21.304Z,7.83
2022-10-23T06:16:24.187Z,7.79
2022-10-23T06:17:27.813Z,7.83
2022-10-23T06:18:29.709Z,7.90
2022-10-23T06:19:33.010Z,7.87
2022-10-23T06:20:36.555Z,7.88
2022-10-23T06:21:39.677Z,7.76
2022-10-23T06:22:42.094Z,7.90
2022-10-23T06:23:45.663Z,7.91
2022-10-23T06:24:47.753Z,7.88
2022-10-23T06:25:51.186Z,7.87
2022-10-23T06:26:53.309Z,7.92
2022-10-23T06:27:55.198Z,7.89
2022-10-23T06:28:57.559Z,7.89
2022-10-23T06:29:59.484Z,7.93
2022-10-23T06:31:07.042Z,7.94
2022-10-23T06:32:09.170Z,7.98
2022-10-23T06:33:11.057Z,7.96
2022-10-23T06:34:14.024Z,7.93
2022-10-23T06:35:16.340Z,7.98
2022-10-23T06:36:18.884Z,7.97
2022-10-23T06:37:20.838Z,7.95
2022-10-23T06:38:23.052Z,8.01
2022-10-23T06:39:27.364Z,8.03
2022-10-23T06:40:30.043Z,8.10
2022-10-23T06:41:33.011Z,8.15
2022-10-23T06:42:35.030Z,8.16
2022-10-23T06:43:38.624Z,8.10
2022-10-23T06:44:40.731Z,7.93
2022-10-23T06:45:42.645Z,8.10
2022-10-23T06:46:44.672Z,8.09
2022-10-23T06:47:51.776Z,8.05
2022-10-23T06:48:53.708Z,8.13
2022-10-23T06:49:55.643Z,8.10
2022-10-23T06:50:58.755Z,8.12
2022-10-23T06:52:00.685Z,8.14
2022-10-23T06:53:03.212Z,8.08
2022-10-23T06:54:05.266Z,8.08
2022-10-23T06:55:08.374Z,8.11
2022-10-23T06:56:11.797Z,8.09
2022-10-23T06:57:13.909Z,8.09
2022-10-23T06:58:15.832Z,8.14
2022-10-23T06:59:18.028Z,8.20
2022-10-23T07:00:20.571Z,8.13
2022-10-23T07:01:22.661Z,8.16
2022-10-23T07:02:24.794Z,8.19
2022-10-23T07:03:27.232Z,8.22
2022-10-23T07:04:29.465Z,8.24
2022-10-23T07:05:32.176Z,8.24
2022-10-23T07:06:34.282Z,8.27
2022-10-23T07:07:36.493Z,8.28
2022-10-23T07:08:38.746Z,8.30
2022-10-23T07:09:40.938Z,8.27
2022-10-23T07:10:43.326Z,8.32
2022-10-23T07:11:45.393Z,8.37
2022-10-23T07:12:47.601Z,8.39
2022-10-23T07:13:49.845Z,8.43
2022-10-23T07:14:51.914Z,8.44
2022-10-23T07:15:54.257Z,8.41
2022-10-23T07:16:56.412Z,8.37
2022-10-23T07:17:58.470Z,8.39
2022-10-23T07:19:00.641Z,8.40
2022-10-23T07:20:03.695Z,8.43
2022-10-23T07:21:06.305Z,8.44
2022-10-23T07:22:10.737Z,8.45
2022-10-23T07:23:12.740Z,8.46
2022-10-23T07:24:14.981Z,8.46
2022-10-23T07:25:17.610Z,8.45
2022-10-23T07:26:19.805Z,8.47
2022-10-23T07:27:22.055Z,8.47
2022-10-23T07:28:24.324Z,8.47
2022-10-23T07:29:26.781Z,8.48
2022-10-23T07:30:28.974Z,8.48
2022-10-23T07:31:31.156Z,8.48
2022-10-23T07:32:33.450Z,8.50
2022-10-23T07:33:36.399Z,8.47
2022-10-23T07:34:38.574Z,8.47
2022-10-23T07:35:41.054Z,8.46
2022-10-23T07:36:43.366Z,8.47
2022-10-23T07:37:45.867Z,8.49
2022-10-23T07:38:49.438Z,8.51
2022-10-23T07:39:51.517Z,8.54
2022-10-23T07:40:56.510Z,8.48
2022-10-23T07:41:58.722Z,8.54
2022-10-23T07:43:03.759Z,8.54
2022-10-23T07:44:06.013Z,8.51
2022-10-23T07:46:20.246Z,8.65
2022-10-23T07:47:22.425Z,8.51
2022-10-23T07:48:24.582Z,8.53
2022-10-23T07:49:26.639Z,8.54
2022-10-23T07:50:29.003Z,8.53
2022-10-23T07:51:31.342Z,8.50
2022-10-23T07:52:36.029Z,8.54
2022-10-23T07:53:39.410Z,8.57
2022-10-23T07:54:43.444Z,8.60
2022-10-23T07:55:57.858Z,8.62
2022-10-23T07:57:00.713Z,8.64
2022-10-23T07:58:02.901Z,8.56
2022-10-23T07:59:05.079Z,8.54
2022-10-23T08:01:33.235Z,8.77
2022-10-23T08:02:36.079Z,8.67
2022-10-23T08:03:38.317Z,8.69
2022-10-23T08:04:40.546Z,8.70
2022-10-23T08:05:42.790Z,8.71
2022-10-23T08:06:45.023Z,8.70
2022-10-23T08:07:50.219Z,8.70
2022-10-23T08:08:52.385Z,8.74
2022-10-23T08:09:54.512Z,8.70
2022-10-23T08:10:57.671Z,8.71
2022-10-23T08:12:03.744Z,8.70
2022-10-23T08:13:05.786Z,8.74
2022-10-23T08:14:08.998Z,8.79
2022-10-23T08:15:11.134Z,8.79
2022-10-23T08:16:13.646Z,8.77
2022-10-23T08:17:15.971Z,8.70
2022-10-23T08:18:19.429Z,8.75
2022-10-23T08:19:25.958Z,8.72
2022-10-23T08:20:28.532Z,8.73
2022-10-23T08:21:31.287Z,8.77
2022-10-23T08:22:33.679Z,8.79
2022-10-23T08:23:37.903Z,8.80
2022-10-23T08:24:40.282Z,8.85
2022-10-23T08:25:42.685Z,8.89
2022-10-23T08:26:44.966Z,8.90
2022-10-23T08:27:50.368Z,8.90
2022-10-23T08:28:54.350Z,8.93
2022-10-23T08:29:56.474Z,8.94
2022-10-23T08:31:00.594Z,8.99
2022-10-23T08:32:03.138Z,9.00
2022-10-23T08:33:06.513Z,8.98
2022-10-23T08:34:09.257Z,8.96
2022-10-23T12:52:53.268Z,10.84
2022-10-23T12:53:58.424Z,10.82
2022-10-23T12:55:04.175Z,10.87
2022-10-23T12:56:07.105Z,10.92
2022-10-23T12:57:27.581Z,10.93
2022-10-23T12:58:34.535Z,10.96
2022-10-23T12:59:38.420Z,10.95
2022-10-23T13:00:45.308Z,10.89
2022-10-23T13:01:52.437Z,10.98
2022-10-23T13:03:03.679Z,11.01
2022-10-23T13:04:20.124Z,10.98
2022-10-23T13:05:26.046Z,10.94
2022-10-23T13:06:29.053Z,11.01
2022-10-23T13:07:34.203Z,10.90
2022-10-23T13:08:43.127Z,10.94
2022-10-23T13:09:46.634Z,10.92
2022-10-23T13:10:49.675Z,10.97
2022-10-23T13:11:52.288Z,10.97
2022-10-23T13:12:57.548Z,10.97
2022-10-23T13:13:59.602Z,10.98
2022-10-23T13:15:11.141Z,11.03
2022-10-23T13:16:23.352Z,10.97
2022-10-23T13:17:45.918Z,10.97
2022-10-23T13:18:49.782Z,10.98
2022-10-23T13:19:51.878Z,10.93
2022-10-23T13:20:57.447Z,10.92
2022-10-23T13:22:00.583Z,10.92
2022-10-23T13:23:11.815Z,10.89
2022-10-23T13:24:19.762Z,10.91
2022-10-23T13:25:33.597Z,10.91
2022-10-23T13:26:38.881Z,10.97
2022-10-23T13:27:41.742Z,10.92
2022-10-23T13:28:45.327Z,10.91
2022-10-23T13:29:47.619Z,10.88
2022-10-23T13:31:13.473Z,10.92
2022-10-23T13:32:24.287Z,10.92
2022-10-23T13:33:36.018Z,10.77
2022-10-23T13:34:38.349Z,10.83
2022-10-23T13:35:40.723Z,10.86
2022-10-23T13:36:53.267Z,10.83
2022-10-23T13:37:53.938Z,10.84
2022-10-23T13:39:11.862Z,10.86
2022-10-23T13:40:26.490Z,10.86
2022-10-23T13:41:40.901Z,10.86
2022-10-23T13:42:43.418Z,10.86
2022-10-23T13:43:47.672Z,10.87
2022-10-23T13:44:50.178Z,10.82
2022-10-23T13:45:52.667Z,10.72
2022-10-23T13:46:55.961Z,10.81
2022-10-23T13:47:58.322Z,10.71
2022-10-23T13:49:00.629Z,10.66
2022-10-23T13:50:03.308Z,10.70
2022-10-23T13:51:21.204Z,10.67
2022-10-23T13:52:23.523Z,10.68
2022-10-23T13:53:25.788Z,10.67
2022-10-23T13:55:31.085Z,10.64
2022-10-23T13:56:33.449Z,10.66
2022-10-23T13:57:35.395Z,10.62
2022-10-23T13:58:37.610Z,10.53
2022-10-23T13:59:40.016Z,10.62
2022-10-23T14:00:45.622Z,10.60
2022-10-23T14:01:49.922Z,10.58
2022-10-23T14:02:52.231Z,10.57
2022-10-23T14:03:56.200Z,10.60
2022-10-23T14:04:58.187Z,10.56
2022-10-23T14:06:00.491Z,10.61
2022-10-23T14:07:03.242Z,10.61
2022-10-23T14:08:06.157Z,10.45
2022-10-23T14:09:12.118Z,10.47
2022-10-23T14:10:15.148Z,10.50
2022-10-23T14:11:19.543Z,10.52
2022-10-23T14:12:21.723Z,10.44
2022-10-23T14:13:24.173Z,10.46
2022-10-23T14:14:26.386Z,10.38
2022-10-23T14:15:28.632Z,10.40
2022-10-23T14:16:31.445Z,10.39
2022-10-23T14:17:35.275Z,10.40
2022-10-23T14:18:37.682Z,10.38
2022-10-23T14:19:43.264Z,10.33
2022-10-23T14:20:46.069Z,10.35
2022-10-23T14:21:48.363Z,10.26
2022-10-23T14:22:50.476Z,10.25
2022-10-23T14:23:53.831Z,10.27
2022-10-23T14:24:56.386Z,10.25
2022-10-23T14:26:07.411Z,10.30
2022-10-23T14:27:09.629Z,10.27
2022-10-23T14:28:11.677Z,10.19
2022-10-23T14:29:21.259Z,10.23
2022-10-23T14:30:18.472Z,10.26
2022-10-23T14:31:21.238Z,10.20
2022-10-23T14:32:23.615Z,10.16
2022-10-23T14:33:25.698Z,10.14
2022-10-23T14:34:27.627Z,10.20
2022-10-23T14:35:29.880Z,10.19
2022-10-23T14:36:38.798Z,10.21
2022-10-23T14:37:36.446Z,10.23
2022-10-23T14:38:38.869Z,10.13
2022-10-23T14:39:40.919Z,10.11
2022-10-23T14:40:43.501Z,10.11
2022-10-23T14:41:46.803Z,10.11
2022-10-23T14:42:49.068Z,10.11
2022-10-23T14:43:54.837Z,10.11
2022-10-23T14:44:57.354Z,10.11
2022-10-23T14:46:08.108Z,10.08
2022-10-23T14:47:13.335Z,10.11
2022-10-23T14:48:15.941Z,10.09
2022-10-23T14:49:18.230Z,10.12
2022-10-23T14:50:20.818Z,10.12
2022-10-23T14:52:35.722Z,10.11
2022-10-23T14:53:37.676Z,10.05
2022-10-23T14:54:39.745Z,10.07
2022-10-23T14:55:41.841Z,10.03
2022-10-23T14:56:44.224Z,9.92
2022-10-23T14:57:46.374Z,9.97
2022-10-23T14:58:48.913Z,9.98
2022-10-23T14:59:51.283Z,9.96
2022-10-23T15:00:58.537Z,10.00
2022-10-23T15:02:00.859Z,10.01
2022-10-23T15:03:03.204Z,10.03
2022-10-23T15:04:06.922Z,10.05
2022-10-23T15:05:09.358Z,10.03
2022-10-23T15:06:16.042Z,10.04
2022-10-23T15:07:21.799Z,10.08
2022-10-23T15:08:24.540Z,9.97
2022-10-23T15:09:27.093Z,10.03
2022-10-23T15:10:29.844Z,9.99
2022-10-23T15:11:32.563Z,10.04
2022-10-23T15:12:36.388Z,10.05
2022-10-23T15:13:38.869Z,9.96
2022-10-23T15:14:41.956Z,9.97
2022-10-23T15:15:44.615Z,10.02
2022-10-23T15:16:47.487Z,10.02
2022-10-23T15:17:49.758Z,10.04
2022-10-23T15:18:53.604Z,10.02
2022-10-23T15:19:55.956Z,10.03
2022-10-23T15:20:59.202Z,10.05
2022-10-23T15:22:01.782Z,10.08
2022-10-23T15:23:04.852Z,10.06
2022-10-23T15:24:07.161Z,10.07
2022-10-23T15:25:11.279Z,10.02
2022-10-23T15:26:16.951Z,10.03
2022-10-23T15:27:20.543Z,10.04
2022-10-23T15:28:23.627Z,10.01
2022-10-23T15:29:25.999Z,10.03
2022-10-23T15:30:29.692Z,10.06
2022-10-23T15:31:39.209Z,10.05
2022-10-23T15:32:41.768Z,10.05
2022-10-23T15:33:44.860Z,10.01
2022-10-23T15:34:48.061Z,10.01
2022-10-23T15:35:51.665Z,10.03
2022-10-23T15:36:56.189Z,10.06
2022-10-23T15:37:59.821Z,10.05
2022-10-23T15:39:09.031Z,10.05
2022-10-23T15:40:12.409Z,10.07
2022-10-23T15:41:18.335Z,10.09
2022-10-23T15:42:20.818Z,10.09
2022-10-23T15:43:22.979Z,10.08
2022-10-23T15:44:27.778Z,10.07
2022-10-23T15:45:31.524Z,10.06
2022-10-23T15:46:34.214Z,10.04
2022-10-23T15:47:36.154Z,10.06
2022-10-23T15:48:38.398Z,10.03
2022-10-23T15:49:40.990Z,10.08
2022-10-23T15:50:43.338Z,10.04
2022-10-23T15:51:46.242Z,10.05
2022-10-23T15:52:48.635Z,10.07
2022-10-23T15:53:51.126Z,10.07
2022-10-23T15:54:53.413Z,10.08
2022-10-23T15:55:55.611Z,10.09
2022-10-23T15:56:58.038Z,10.10
2022-10-23T15:58:00.505Z,10.06
2022-10-23T15:59:02.694Z,10.05
2022-10-23T16:00:07.758Z,10.00
2022-10-23T16:01:10.433Z,9.96
2022-10-23T16:02:12.967Z,9.99
2022-10-23T16:03:15.433Z,10.00
2022-10-23T16:04:18.133Z,9.95
2022-10-23T16:05:20.607Z,9.99
2022-10-23T16:06:22.958Z,10.00
2022-10-23T16:07:25.589Z,9.98
2022-10-23T16:08:28.046Z,10.02
2022-10-23T16:09:30.121Z,10.01
2022-10-23T16:10:32.829Z,9.99
2022-10-23T16:11:37.287Z,9.98
2022-10-23T16:12:40.090Z,9.96
2022-10-23T16:13:42.500Z,9.97
2022-10-23T16:14:45.065Z,10.00
2022-10-23T16:15:47.943Z,9.99
2022-10-23T16:16:50.705Z,10.01
2022-10-23T16:17:53.459Z,10.03
2022-10-23T16:19:01.103Z,10.05
2022-10-23T16:20:04.169Z,10.05
2022-10-23T16:21:07.642Z,10.05
2022-10-23T16:22:10.052Z,10.06
2022-10-23T16:23:12.523Z,10.06
2022-10-23T16:24:14.811Z,10.03
2022-10-23T16:25:17.150Z,10.03
2022-10-23T16:26:20.600Z,10.02
2022-10-23T16:27:22.913Z,9.99
2022-10-23T16:28:25.403Z,10.00
2022-10-23T16:29:27.999Z,10.03
2022-10-23T16:30:30.948Z,10.03
2022-10-23T16:31:33.804Z,9.93
2022-10-23T16:32:36.012Z,9.96
2022-10-23T16:33:39.027Z,9.98
2022-10-23T16:34:41.931Z,9.74
2022-10-23T16:35:44.238Z,9.94
2022-10-23T16:36:47.479Z,9.95
2022-10-23T16:37:49.821Z,9.94
2022-10-23T16:38:52.295Z,9.94
2022-10-23T16:39:54.424Z,9.93
2022-10-23T16:40:56.721Z,9.95
2022-10-23T16:41:58.900Z,10.01
2022-10-23T16:43:01.322Z,9.93
2022-10-23T16:44:04.476Z,9.91
2022-10-23T16:45:08.603Z,9.90
2022-10-23T16:46:14.281Z,9.91
2022-10-23T16:47:16.812Z,9.94
2022-10-23T16:48:19.011Z,9.97
2022-10-23T16:49:21.440Z,9.91
2022-10-23T16:50:23.948Z,9.97
2022-10-23T16:51:26.542Z,9.95
2022-10-23T16:52:28.758Z,9.97
2022-10-23T16:53:31.155Z,9.95
2022-10-23T16:54:33.561Z,9.97
2022-10-23T16:55:39.513Z,9.96
2022-10-23T16:56:43.032Z,9.95
2022-10-23T16:57:45.456Z,10.00
2022-10-23T16:58:47.705Z,9.95
2022-10-23T16:59:51.589Z,9.96
2022-10-23T17:01:09.889Z,9.92
2022-10-23T17:02:12.585Z,9.95
2022-10-23T17:03:15.218Z,9.98
2022-10-23T17:04:17.717Z,9.99
2022-10-23T17:05:19.964Z,10.04
2022-10-23T17:06:29.135Z,10.03
2022-10-23T17:07:32.250Z,10.06
2022-10-23T17:08:35.462Z,10.04
2022-10-23T17:09:37.652Z,10.03
2022-10-23T17:10:39.894Z,10.04
2022-10-23T17:11:44.485Z,10.10
2022-10-23T17:12:46.676Z,10.12
2022-10-23T17:13:58.539Z,10.08
2022-10-23T17:14:59.200Z,10.07
2022-10-23T17:16:16.262Z,10.09
2022-10-23T17:17:18.858Z,10.13
2022-10-23T17:18:21.245Z,10.14
2022-10-23T17:19:43.717Z,10.13
2022-10-23T17:20:30.139Z,10.16
2022-10-23T17:21:35.556Z,10.14
2022-10-23T17:22:39.817Z,10.14
2022-10-23T17:23:42.653Z,10.17
2022-10-23T17:24:47.470Z,10.14
2022-10-23T17:25:49.085Z,10.09
2022-10-23T17:26:51.994Z,10.16
2022-10-23T17:27:55.461Z,10.09
2022-10-23T17:28:59.457Z,10.15
2022-10-23T17:30:03.968Z,10.12
2022-10-23T17:31:16.040Z,10.13
2022-10-23T17:32:18.788Z,10.14
2022-10-23T17:33:22.963Z,10.16
2022-10-23T17:34:25.736Z,10.18
2022-10-23T17:35:28.063Z,10.17
2022-10-23T17:36:32.858Z,10.16
2022-10-23T17:37:34.906Z,10.20
2022-10-23T17:38:39.566Z,10.21
2022-10-23T17:39:42.162Z,10.23
2022-10-23T17:41:48.796Z,10.23
2022-10-23T17:42:51.103Z,10.20
2022-10-23T17:43:57.953Z,10.21
2022-10-23T17:44:59.947Z,10.23
2022-10-23T17:46:06.768Z,10.27
2022-10-23T17:47:10.582Z,10.20
2022-10-23T17:48:13.496Z,10.23
2022-10-23T17:49:15.412Z,10.26
2022-10-23T17:50:18.286Z,10.26
2022-10-23T17:51:23.090Z,10.25
2022-10-23T17:52:25.008Z,10.27
2022-10-23T17:53:27.129Z,10.26
2022-10-23T17:54:29.489Z,10.24
2022-10-23T17:55:39.749Z,10.24
2022-10-23T17:56:42.179Z,10.25
2022-10-23T17:57:47.171Z,10.28
2022-10-23T17:58:50.999Z,10.27
2022-10-23T17:59:52.933Z,10.27
2022-10-23T18:00:55.280Z,10.26
2022-10-23T18:01:57.313Z,10.26
2022-10-23T18:02:59.439Z,10.28
2022-10-23T18:04:04.331Z,10.27
2022-10-23T18:05:07.651Z,10.25
2022-10-23T18:06:12.854Z,10.20
2022-10-23T18:07:15.297Z,10.25
2022-10-23T18:08:17.776Z,10.27
2022-10-23T18:09:22.496Z,10.28
2022-10-23T18:10:28.353Z,10.27
2022-10-23T18:11:34.195Z,10.30
2022-10-23T18:12:36.752Z,10.25
2022-10-23T18:13:38.825Z,10.26
2022-10-23T18:14:40.709Z,10.29
2022-10-23T18:15:42.692Z,10.21
2022-10-23T18:16:44.888Z,10.26
2022-10-23T18:17:48.709Z,10.28
2022-10-23T18:18:51.333Z,10.04
2022-10-23T18:19:54.342Z,10.28
2022-10-23T18:20:58.927Z,10.27
2022-10-23T18:22:01.280Z,10.36
2022-10-23T18:23:03.260Z,10.28
2022-10-23T18:24:05.971Z,10.28
2022-10-23T18:25:09.355Z,10.34
2022-10-23T18:26:20.812Z,10.32
2022-10-23T18:27:23.132Z,10.28
2022-10-23T18:28:26.392Z,10.27
2022-10-23T18:29:28.494Z,10.29
2022-10-23T18:30:30.548Z,10.28
2022-10-23T18:31:34.308Z,10.27
2022-10-23T18:32:36.225Z,10.27
2022-10-23T18:33:38.286Z,10.27
2022-10-23T18:34:40.171Z,10.25
2022-10-23T18:35:42.985Z,10.26
2022-10-23T18:36:45.626Z,10.27
2022-10-23T18:37:49.854Z,10.29
2022-10-23T18:38:52.587Z,10.31
2022-10-23T18:39:54.707Z,10.28
2022-10-23T18:40:58.355Z,10.30
2022-10-23T18:42:00.458Z,10.32
2022-10-23T18:43:07.010Z,10.31
2022-10-23T18:44:11.692Z,10.26
2022-10-23T18:45:14.405Z,10.28
2022-10-23T18:46:17.956Z,10.30
2022-10-23T18:47:20.360Z,10.32